Time;durP1;ratioP1;P1;durP2;ratioP2;P2;SDS_P1;SDS_P2;PMS_P1;PMS_P2;Temp;Humidity;BMP_temperature;BMP_pressure;BME280_temperature;BME280_humidity;BME280_pressure;Samples;Min_cycle;Max_cycle;Signal;HPM_P1;HPM_P2
2022/11/06 00:00:44;;;;;;;32.95;18.85;;;3.80;99.90;;;;;;5017892;28;20441;-87
2022/11/06 00:03:11;;;;;;;35.72;22.70;;;3.80;99.90;;;;;;5027817;28;20182;-86
2022/11/06 00:08:34;;;;;;;340.00;42.13;;;3.70;99.90;;;;;;5017713;28;20214;-86
2022/11/06 00:11:10;;;;;;;517.85;51.28;;;3.60;99.90;;;;;;5015880;28;20254;-87
2022/11/06 00:13:36;;;;;;;344.02;41.25;;;3.50;99.90;;;;;;5013522;28;20684;-86
2022/11/06 00:16:04;;;;;;;110.63;24.53;;;3.30;99.90;;;;;;5015029;28;20224;-86
2022/11/06 00:18:30;;;;;;;51.65;26.13;;;3.30;99.90;;;;;;5024101;28;20170;-86
2022/11/06 00:20:55;;;;;;;68.72;24.23;;;3.30;99.90;;;;;;5021757;28;20186;-86
2022/11/06 00:23:21;;;;;;;95.30;22.43;;;;;;;;;;5017411;28;20178;-86
2022/11/06 00:25:51;;;;;;;62.50;23.47;;;3.20;99.90;;;;;;5015691;28;20265;-87
2022/11/06 00:28:17;;;;;;;31.05;19.50;;;3.20;99.90;;;;;;5018097;28;20508;-87
2022/11/06 00:30:43;;;;;;;32.70;17.25;;;3.20;99.90;;;;;;5033214;28;20238;-86
2022/11/06 00:33:09;;;;;;;34.93;20.70;;;;;;;;;;5036460;28;20579;-86
2022/11/06 00:35:38;;;;;;;34.65;19.02;;;3.30;99.90;;;;;;5018796;28;20236;-86
2022/11/06 00:38:03;;;;;;;29.95;15.52;;;3.30;99.90;;;;;;5019186;28;20631;-86
2022/11/06 00:40:30;;;;;;;41.20;18.20;;;;;;;;;;5030189;28;20171;-86
2022/11/06 00:42:56;;;;;;;187.75;32.53;;;3.30;99.90;;;;;;5008787;28;20495;-86
2022/11/06 00:45:23;;;;;;;286.10;34.95;;;3.20;99.90;;;;;;5017905;28;20615;-87
2022/11/06 00:47:49;;;;;;;222.23;30.85;;;3.10;99.90;;;;;;5017823;28;20623;-86
2022/11/06 00:50:14;;;;;;;38.17;20.60;;;3.10;99.90;;;;;;5017886;28;20186;-86
2022/11/06 00:52:40;;;;;;;39.03;20.93;;;;;;;;;;5027750;28;20185;-87
2022/11/06 00:55:06;;;;;;;43.63;22.73;;;3.20;99.90;;;;;;5033413;28;20245;-86
2022/11/06 00:57:32;;;;;;;35.13;22.17;;;;;;;;;;5014377;28;20442;-87
2022/11/06 00:59:58;;;;;;;41.50;22.23;;;3.20;99.90;;;;;;5011480;28;20436;-87
2022/11/06 01:02:24;;;;;;;54.10;26.20;;;;;;;;;;5026641;28;20460;-88
2022/11/06 01:04:49;;;;;;;51.53;24.97;;;3.30;99.90;;;;;;5016405;28;20436;-87
2022/11/06 01:07:15;;;;;;;47.57;23.80;;;;;;;;;;5013980;28;20437;-87
2022/11/06 01:09:41;;;;;;;37.47;21.37;;;;;;;;;;5014355;28;20655;-88
2022/11/06 01:12:07;;;;;;;33.43;18.80;;;3.10;99.90;;;;;;5011121;28;20437;-88
2022/11/06 01:14:32;;;;;;;22.47;13.20;;;2.70;99.90;;;;;;5029655;28;20463;-87
2022/11/06 01:16:58;;;;;;;12.07;7.77;;;;;;;;;;5014908;28;20760;-87
2022/11/06 01:19:24;;;;;;;24.13;13.77;;;2.80;99.90;;;;;;5013898;28;20187;-87
2022/11/06 01:21:52;;;;;;;29.70;17.37;;;2.90;99.90;;;;;;5030226;28;20451;-88
2022/11/06 01:24:22;;;;;;;27.10;15.25;;;2.90;99.90;;;;;;5019221;28;20278;-87
2022/11/06 01:26:47;;;;;;;26.92;16.83;;;2.80;99.90;;;;;;5013511;28;20221;-87
2022/11/06 01:29:15;;;;;;;37.37;17.07;;;2.70;99.90;;;;;;5009165;28;20205;-87
2022/11/06 01:31:41;;;;;;;36.40;17.23;;;2.70;99.90;;;;;;5023927;28;20447;-87
2022/11/06 01:34:07;;;;;;;28.70;15.53;;;;;;;;;;5030559;28;20698;-87
2022/11/06 01:36:32;;;;;;;29.58;15.43;;;2.60;99.90;;;;;;5022121;28;20436;-88
2022/11/06 01:39:00;;;;;;;33.23;16.73;;;2.50;99.90;;;;;;5013967;28;20178;-86
2022/11/06 01:41:32;;;;;;;40.40;16.25;;;2.50;99.90;;;;;;5027120;28;20476;-85
2022/11/06 01:44:22;;;;;;;29.48;16.38;;;2.50;99.90;;;;;;5034667;28;20190;-87
2022/11/06 01:46:48;;;;;;;37.83;17.77;;;2.60;99.90;;;;;;4990214;28;20541;-85
2022/11/06 01:49:15;;;;;;;42.87;20.77;;;2.60;99.90;;;;;;5017730;28;20229;-87
2022/11/06 01:52:02;;;;;;;41.00;21.52;;;2.70;99.90;;;;;;5033326;28;20162;-87
2022/11/06 01:54:29;;;;;;;41.33;20.83;;;2.70;99.90;;;;;;5017917;28;20293;-85
2022/11/06 01:56:57;;;;;;;50.00;21.33;;;2.70;99.90;;;;;;5032108;28;20181;-87
2022/11/06 01:59:27;;;;;;;38.15;20.35;;;2.60;99.90;;;;;;5015504;28;21381;-86
2022/11/06 02:01:53;;;;;;;38.63;21.48;;;2.60;99.90;;;;;;5004253;28;20178;-84
2022/11/06 02:04:25;;;;;;;26.73;14.40;;;2.60;99.90;;;;;;5015295;28;20179;-84
2022/11/06 02:06:51;;;;;;;32.90;18.70;;;2.60;99.90;;;;;;5015473;28;20201;-86
2022/11/06 02:09:18;;;;;;;24.20;13.90;;;2.60;99.90;;;;;;5002366;28;20683;-85
2022/11/06 02:11:50;;;;;;;28.40;14.18;;;2.60;99.90;;;;;;4999360;28;20472;-84
2022/11/06 02:14:47;;;;;;;30.55;16.10;;;2.50;99.90;;;;;;5015843;28;20193;-86
2022/11/06 02:17:28;;;;;;;24.67;14.32;;;2.50;99.90;;;;;;5006203;28;20228;-86
2022/11/06 02:20:05;;;;;;;30.95;15.18;;;2.50;99.90;;;;;;5009560;28;20178;-86
2022/11/06 02:23:06;;;;;;;28.95;16.10;;;2.50;99.90;;;;;;5011697;28;20182;-86
2022/11/06 02:25:32;;;;;;;30.88;18.73;;;2.40;99.90;;;;;;4989782;28;20210;-87
2022/11/06 02:28:03;;;;;;;27.87;16.60;;;2.30;99.90;;;;;;5004845;28;20194;-86
2022/11/06 02:30:32;;;;;;;24.17;11.73;;;2.30;99.90;;;;;;5013044;28;20741;-88
2022/11/06 02:33:09;;;;;;;22.23;12.13;;;2.30;99.90;;;;;;5007499;28;20613;-85
2022/11/06 02:35:45;;;;;;;20.70;10.45;;;2.40;99.90;;;;;;5023648;28;20210;-88
2022/11/06 02:38:24;;;;;;;19.90;9.85;;;4.00;99.90;;;;;;5007674;28;20270;-88
2022/11/06 02:41:00;;;;;;;17.08;9.82;;;2.60;99.90;;;;;;4997960;28;20209;-87
2022/11/06 02:43:32;;;;;;;25.02;9.05;;;2.60;99.90;;;;;;5005494;28;20601;-87
2022/11/06 02:46:19;;;;;;;21.98;9.35;;;2.70;99.90;;;;;;5011647;28;20198;-87
2022/11/06 02:48:49;;;;;;;25.65;11.25;;;2.70;99.90;;;;;;5009060;28;20175;-87
2022/11/06 02:51:21;;;;;;;23.67;11.38;;;2.80;99.90;;;;;;5018394;28;20202;-87
2022/11/06 02:53:48;;;;;;;23.38;13.65;;;2.90;99.90;;;;;;5015021;28;20203;-88
2022/11/06 02:56:18;;;;;;;23.58;12.88;;;2.90;99.90;;;;;;5012291;28;20183;-86
2022/11/06 02:58:47;;;;;;;22.27;11.73;;;3.00;99.90;;;;;;5016760;28;20242;-86
2022/11/06 03:01:31;;;;;;;24.65;12.27;;;2.90;99.90;;;;;;5016967;28;20437;-88
2022/11/06 03:04:01;;;;;;;24.58;12.73;;;2.90;99.90;;;;;;5020899;28;20174;-88
2022/11/06 03:06:45;;;;;;;23.67;13.60;;;2.90;99.90;;;;;;5015527;28;20195;-86
2022/11/06 03:09:18;;;;;;;26.85;13.55;;;3.00;99.90;;;;;;5020340;28;20198;-84
2022/11/06 03:11:48;;;;;;;33.72;15.25;;;3.00;99.90;;;;;;5031628;28;20175;-87
2022/11/06 03:14:23;;;;;;;23.35;13.68;;;3.10;99.90;;;;;;5023130;28;20221;-86
2022/11/06 03:17:03;;;;;;;28.58;14.45;;;3.20;99.90;;;;;;5016075;28;20216;-87
2022/11/06 03:19:43;;;;;;;182.50;23.92;;;3.20;99.90;;;;;;5019413;28;20256;-86
2022/11/06 03:22:12;;;;;;;210.52;26.05;;;2.70;99.90;;;;;;5020635;28;20188;-84
2022/11/06 03:24:54;;;;;;;140.00;21.77;;;2.00;99.90;;;;;;5024683;28;20178;-86
2022/11/06 03:27:32;;;;;;;22.60;14.55;;;2.00;99.90;;;;;;5017074;28;20262;-86
2022/11/06 03:30:05;;;;;;;30.55;15.57;;;1.80;99.90;;;;;;5018241;28;20170;-86
2022/11/06 03:32:38;;;;;;;31.52;15.05;;;2.00;99.90;;;;;;5009636;28;20178;-87
2022/11/06 03:35:20;;;;;;;31.65;18.70;;;2.40;99.90;;;;;;5010594;28;20340;-87
2022/11/06 03:37:56;;;;;;;35.65;17.95;;;2.70;99.90;;;;;;5015767;28;20195;-85
2022/11/06 03:40:24;;;;;;;24.75;16.35;;;2.70;99.90;;;;;;5004837;28;20214;-86
2022/11/06 03:42:53;;;;;;;25.90;17.25;;;2.10;99.90;;;;;;5014266;28;20174;-86
2022/11/06 03:45:21;;;;;;;24.52;15.15;;;1.90;99.90;;;;;;5012075;28;20245;-87
2022/11/06 03:47:55;;;;;;;24.85;15.27;;;1.80;99.90;;;;;;5020026;28;20585;-87
2022/11/06 03:50:28;;;;;;;25.17;15.63;;;1.90;99.90;;;;;;5010952;28;20170;-87
2022/11/06 03:53:10;;;;;;;31.35;16.13;;;2.00;99.90;;;;;;5001522;28;20181;-86
2022/11/06 03:55:44;;;;;;;30.77;14.65;;;2.00;99.90;;;;;;5001266;28;20203;-86
2022/11/06 03:58:13;;;;;;;29.55;15.30;;;2.00;99.90;;;;;;5010788;28;20202;-86
2022/11/06 04:00:41;;;;;;;31.02;15.65;;;2.20;99.90;;;;;;5019656;28;20295;-87
2022/11/06 04:03:31;;;;;;;23.80;13.60;;;2.20;99.90;;;;;;5012197;28;20221;-86
2022/11/06 04:06:09;;;;;;;24.55;14.68;;;2.40;99.90;;;;;;5001284;28;20817;-85
2022/11/06 04:14:12;;;;;;;35.20;15.85;;;2.50;99.90;;;;;;5020142;28;20209;-86
2022/11/06 04:16:42;;;;;;;33.28;16.85;;;1.90;99.90;;;;;;5016207;28;20199;-89
2022/11/06 04:19:19;;;;;;;27.58;14.32;;;2.60;99.90;;;;;;5006230;28;20631;-87
2022/11/06 04:22:10;;;;;;;21.30;14.25;;;2.60;99.90;;;;;;4998298;28;20171;-89
2022/11/06 04:27:35;;;;;;;24.80;13.75;;;2.40;99.90;;;;;;5020452;28;20198;-88
2022/11/06 04:30:13;;;;;;;25.35;14.02;;;2.50;99.90;;;;;;5016530;28;20223;-86
2022/11/06 04:33:11;;;;;;;31.20;14.50;;;2.60;99.90;;;;;;5019147;28;20178;-86
2022/11/06 04:35:57;;;;;;;23.88;13.38;;;2.70;99.90;;;;;;5018931;28;20264;-86
2022/11/06 04:38:47;;;;;;;29.00;13.10;;;2.70;99.90;;;;;;5031533;28;20201;-86
2022/11/06 04:41:24;;;;;;;21.65;11.40;;;2.70;99.90;;;;;;5027273;28;20253;-86
2022/11/06 04:43:58;;;;;;;22.77;12.93;;;3.10;99.90;;;;;;5017177;28;20185;-86
2022/11/06 04:46:37;;;;;;;19.10;7.68;;;3.60;99.90;;;;;;5018387;28;20272;-86
2022/11/06 04:49:05;;;;;;;28.05;12.77;;;3.80;99.90;;;;;;5013129;28;20178;-85
2022/11/06 04:51:34;;;;;;;24.15;10.18;;;3.90;99.90;;;;;;5013262;28;20344;-86
2022/11/06 04:54:01;;;;;;;22.73;12.90;;;3.90;99.90;;;;;;5033171;28;20537;-84
2022/11/06 04:56:30;;;;;;;24.42;13.40;;;3.80;99.90;;;;;;5018483;28;20198;-86
2022/11/06 04:58:56;;;;;;;21.08;13.65;;;3.80;99.90;;;;;;5030179;28;20448;-87
2022/11/06 05:01:22;;;;;;;19.30;12.07;;;;;;;;;;5018172;28;20264;-87
2022/11/06 05:03:48;;;;;;;20.67;12.17;;;;;;;;;;5018340;28;20661;-85
2022/11/06 05:06:14;;;;;;;51.87;16.27;;;;;;;;;;5016348;28;20453;-86
2022/11/06 05:08:40;;;;;;;34.65;17.17;;;2.00;99.90;;;;;;5016966;28;20456;-86
2022/11/06 05:11:05;;;;;;;74.00;16.97;;;1.80;99.90;;;;;;5016157;28;20171;-85
2022/11/06 05:13:31;;;;;;;32.53;14.73;;;;;;;;;;5032979;28;20631;-84
2022/11/06 05:15:58;;;;;;;26.53;15.30;;;1.70;99.90;;;;;;5018187;28;20186;-85
2022/11/06 05:18:25;;;;;;;25.02;15.98;;;1.60;99.90;;;;;;5016061;28;20429;-85
2022/11/06 05:22:56;;;;;;;31.25;17.40;;;1.80;99.90;;;;;;5015692;28;20632;-84
2022/11/06 05:26:18;;;;;;;36.42;17.88;;;1.70;99.90;;;;;;5045894;28;20205;-87
2022/11/06 05:28:44;;;;;;;30.10;17.17;;;;;;;;;;5044817;28;20265;-87
2022/11/06 05:31:10;;;;;;;40.67;19.25;;;1.60;99.90;;;;;;5059388;28;20443;-88
2022/11/06 05:33:36;;;;;;;35.93;18.17;;;;;;;;;;5051321;28;20250;-88
2022/11/06 05:36:03;;;;;;;31.98;17.75;;;1.60;99.90;;;;;;5058669;28;20236;-86
2022/11/06 05:38:29;;;;;;;28.48;17.08;;;1.60;99.90;;;;;;5041689;28;20181;-88
2022/11/06 05:40:55;;;;;;;26.23;15.10;;;;;;;;;;5043738;28;20638;-87
2022/11/06 05:43:21;;;;;;;29.07;16.20;;;;;;;;;;5061266;28;20419;-88
2022/11/06 05:45:46;;;;;;;35.20;17.83;;;1.80;99.90;;;;;;5049472;28;20441;-87
2022/11/06 05:48:12;;;;;;;38.83;19.60;;;;;;;;;;5045086;28;20512;-86
2022/11/06 05:50:38;;;;;;;25.00;15.23;;;;;;;;;;5045048;28;20189;-87
2022/11/06 05:53:04;;;;;;;31.60;16.83;;;;;;;;;;5042650;28;20461;-88
2022/11/06 05:55:30;;;;;;;25.48;15.60;;;2.00;99.90;;;;;;5044304;28;20532;-87
2022/11/06 05:57:56;;;;;;;22.83;13.50;;;;;;;;;;5044831;28;20445;-89
2022/11/06 06:00:22;;;;;;;23.80;14.23;;;;;;;;;;5043646;28;20704;-88
2022/11/06 06:02:47;;;;;;;25.87;13.57;;;2.00;99.90;;;;;;5050779;28;20779;-89
2022/11/06 06:05:13;;;;;;;24.17;13.33;;;1.90;99.90;;;;;;5049911;28;20451;-86
2022/11/06 06:07:39;;;;;;;19.80;11.33;;;;;;;;;;5041043;28;20185;-85
2022/11/06 06:10:06;;;;;;;19.60;10.75;;;2.00;99.90;;;;;;5044033;28;20950;-84
2022/11/06 06:12:32;;;;;;;22.67;10.80;;;2.20;99.90;;;;;;5047225;28;20182;-86
2022/11/06 06:14:57;;;;;;;22.00;12.83;;;2.30;99.90;;;;;;5059000;28;20219;-85
2022/11/06 06:17:23;;;;;;;24.10;12.30;;;2.50;99.90;;;;;;5041872;28;20440;-84
2022/11/06 06:19:49;;;;;;;17.83;10.98;;;2.70;99.90;;;;;;5046385;28;20181;-85
2022/11/06 06:22:15;;;;;;;20.00;10.40;;;;;;;;;;5036781;28;20219;-86
2022/11/06 06:24:40;;;;;;;19.80;11.43;;;3.10;99.90;;;;;;5058414;28;20213;-85
2022/11/06 06:27:06;;;;;;;27.57;10.30;;;3.20;99.90;;;;;;5045969;28;20440;-87
2022/11/06 06:29:32;;;;;;;26.90;14.67;;;;;;;;;;5046871;28;20181;-86
2022/11/06 06:31:58;;;;;;;24.20;13.93;;;;;;;;;;5042829;28;20437;-87
2022/11/06 06:34:24;;;;;;;31.23;18.07;;;;;;;;;;5049342;28;20481;-86
2022/11/06 06:36:51;;;;;;;31.43;17.13;;;3.00;99.90;;;;;;5041074;28;20432;-86
2022/11/06 06:39:20;;;;;;;24.42;15.93;;;3.00;99.90;;;;;;5039888;28;20474;-87
2022/11/06 06:41:47;;;;;;;22.58;13.20;;;2.90;99.90;;;;;;5048247;28;20244;-86
2022/11/06 06:44:13;;;;;;;22.98;13.77;;;2.90;99.90;;;;;;5049500;28;20216;-86
2022/11/06 06:46:39;;;;;;;95.85;20.65;;;3.00;99.90;;;;;;5050941;28;20285;-86
2022/11/06 06:49:05;;;;;;;189.73;25.10;;;;;;;;;;5058592;28;20752;-86
2022/11/06 06:51:30;;;;;;;21.83;14.10;;;2.60;99.90;;;;;;5048384;28;20231;-86
2022/11/06 06:53:56;;;;;;;23.77;15.50;;;2.50;99.90;;;;;;5050235;28;20221;-86
2022/11/06 06:56:22;;;;;;;25.80;15.70;;;;;;;;;;5051076;28;20594;-89
2022/11/06 06:58:48;;;;;;;32.13;17.27;;;3.10;99.90;;;;;;5045920;28;20173;-86
2022/11/06 07:01:14;;;;;;;27.70;14.50;;;3.30;99.90;;;;;;5047150;28;20424;-86
2022/11/06 07:03:40;;;;;;;18.17;9.20;;;;;;;;;;5052254;28;20205;-86
2022/11/06 07:06:06;;;;;;;13.38;7.63;;;4.20;99.90;;;;;;5065593;28;20434;-87
2022/11/06 07:08:32;;;;;;;17.42;9.75;;;4.70;99.90;;;;;;5046972;28;20189;-87
2022/11/06 07:11:03;;;;;;;17.63;10.50;;;5.00;99.90;;;;;;5053280;28;20196;-87
2022/11/06 07:13:28;;;;;;;12.38;7.63;;;6.10;99.90;;;;;;5049678;28;20197;-86
2022/11/06 07:15:54;;;;;;;10.10;6.13;;;;;;;;;;5059580;28;20192;-87
2022/11/06 07:18:20;;;;;;;12.07;7.43;;;;;;;;;;5056130;28;20607;-86
2022/11/06 07:20:46;;;;;;;11.40;7.25;;;6.90;99.90;;;;;;5048812;28;20431;-86
2022/11/06 07:23:11;;;;;;;9.13;6.00;;;7.60;99.90;;;;;;5050914;28;20258;-85
2022/11/06 07:25:37;;;;;;;8.03;5.40;;;7.90;99.90;;;;;;5043688;28;20314;-86
2022/11/06 07:28:04;;;;;;;9.17;6.20;;;7.80;99.90;;;;;;5044415;28;20189;-87
2022/11/06 07:30:31;;;;;;;7.93;5.40;;;7.80;99.90;;;;;;5052954;28;20177;-87
2022/11/06 07:33:03;;;;;;;8.23;5.45;;;7.30;99.90;;;;;;5061385;28;20185;-88
2022/11/06 07:35:28;;;;;;;7.68;6.13;;;7.50;99.90;;;;;;5058564;28;20247;-87
2022/11/06 07:37:54;;;;;;;8.10;6.50;;;;;;;;;;5042751;28;20162;-87
2022/11/06 07:40:20;;;;;;;10.20;6.32;;;;;;;;;;5064286;28;20181;-87
2022/11/06 07:42:48;;;;;;;17.50;6.03;;;7.90;99.90;;;;;;5060989;28;20182;-88
2022/11/06 07:45:14;;;;;;;8.85;6.43;;;7.50;99.90;;;;;;5062233;28;20189;-88
2022/11/06 07:47:40;;;;;;;7.95;5.75;;;7.60;99.90;;;;;;5047492;28;20560;-86
2022/11/06 07:50:06;;;;;;;11.53;8.00;;;7.50;99.90;;;;;;5049881;28;20177;-88
2022/11/06 07:52:32;;;;;;;11.60;7.93;;;;;;;;;;5060516;28;20267;-88
2022/11/06 07:54:58;;;;;;;11.48;6.32;;;;;;;;;;5053309;28;20463;-88
2022/11/06 07:57:24;;;;;;;9.70;5.82;;;;;;;;;;5046212;28;20585;-88
2022/11/06 07:59:50;;;;;;;7.75;5.82;;;8.50;99.90;;;;;;5040617;28;20231;-87
2022/11/06 08:02:16;;;;;;;9.77;5.40;;;;;;;;;;5057853;28;20213;-87
2022/11/06 08:04:42;;;;;;;10.73;6.00;;;;;;;;;;5040832;28;20189;-87
2022/11/06 08:07:08;;;;;;;9.95;6.13;;;9.60;99.90;;;;;;5040369;28;20409;-87
2022/11/06 08:09:34;;;;;;;11.30;6.45;;;;;;;;;;5056731;28;20184;-87
2022/11/06 08:12:00;;;;;;;13.27;6.45;;;9.40;99.90;;;;;;5040646;28;20200;-86
2022/11/06 08:14:26;;;;;;;9.27;5.10;;;9.40;99.90;;;;;;5038843;28;20210;-86
2022/11/06 08:16:52;;;;;;;8.83;5.13;;;;;;;;;;5039015;28;20200;-87
2022/11/06 08:19:18;;;;;;;10.87;7.27;;;;;;;;;;5040225;28;20150;-87
2022/11/06 08:21:44;;;;;;;9.80;5.40;;;;;;;;;;5040262;28;20404;-87
2022/11/06 08:24:10;;;;;;;8.57;5.57;;;;;;;;;;5039219;28;20444;-87
2022/11/06 08:26:36;;;;;;;9.80;5.90;;;;;;;;;;5039075;28;20771;-87
2022/11/06 08:29:02;;;;;;;11.50;5.68;;;;;;;;;;5045945;28;20720;-86
2022/11/06 08:31:28;;;;;;;10.30;6.53;;;;;;;;;;5053013;28;20201;-86
2022/11/06 08:33:54;;;;;;;9.23;5.25;;;8.80;99.90;;;;;;5046341;28;20541;-87
2022/11/06 08:36:19;;;;;;;7.30;5.93;;;9.20;99.90;;;;;;5055654;28;20189;-89
2022/11/06 08:38:48;;;;;;;8.50;6.20;;;8.60;99.90;;;;;;5045827;28;20178;-86
2022/11/06 08:41:15;;;;;;;8.02;5.05;;;;;;;;;;5052699;28;20223;-86
2022/11/06 08:43:40;;;;;;;22.15;6.18;;;8.60;99.90;;;;;;5052002;28;20174;-85
2022/11/06 08:46:07;;;;;;;7.73;4.40;;;8.50;99.90;;;;;;5055336;28;20184;-86
2022/11/06 08:48:33;;;;;;;10.07;5.60;;;8.50;99.90;;;;;;5040147;28;20174;-85
2022/11/06 08:50:59;;;;;;;10.27;5.47;;;;;;;;;;5047726;28;20199;-85
2022/11/06 08:53:25;;;;;;;9.57;5.50;;;;;;;;;;5063506;28;20173;-86
2022/11/06 08:55:51;;;;;;;11.60;6.83;;;8.90;99.90;;;;;;5058650;28;21002;-85
2022/11/06 08:58:17;;;;;;;7.63;5.33;;;;;;;;;;5052193;28;20507;-86
2022/11/06 09:00:43;;;;;;;10.20;6.73;;;9.00;99.90;;;;;;5055102;28;20463;-85
2022/11/06 09:03:12;;;;;;;11.40;6.03;;;9.30;99.90;;;;;;5057532;28;20416;-86
2022/11/06 09:05:42;;;;;;;8.23;5.60;;;9.30;99.90;;;;;;5055209;28;20216;-86
2022/11/06 09:08:08;;;;;;;10.68;6.30;;;11.20;99.90;;;;;;5059330;28;20235;-85
2022/11/06 09:10:36;;;;;;;10.38;5.90;;;11.30;99.90;;;;;;5054109;28;20185;-86
2022/11/06 09:13:02;;;;;;;7.88;5.63;;;;;;;;;;5054257;28;20188;-87
2022/11/06 09:15:28;;;;;;;7.37;5.00;;;;;;;;;;5040514;28;20197;-86
2022/11/06 09:17:54;;;;;;;9.40;6.20;;;;;;;;;;5054580;28;20478;-83
2022/11/06 09:20:22;;;;;;;10.30;6.70;;;13.70;99.90;;;;;;5052346;28;20428;-87
2022/11/06 09:22:48;;;;;;;10.30;6.20;;;;;;;;;;5056596;28;20974;-85
2022/11/06 09:25:14;;;;;;;10.57;5.83;;;11.40;99.90;;;;;;5051754;28;20225;-88
2022/11/06 09:27:48;;;;;;;11.02;5.65;;;11.30;99.90;;;;;;5046501;28;20436;-85
2022/11/06 09:30:16;;;;;;;11.25;6.38;;;10.70;99.90;;;;;;5059858;28;20189;-86
2022/11/06 09:32:47;;;;;;;6.38;5.00;;;10.40;99.90;;;;;;5044212;28;20174;-86
2022/11/06 09:35:13;;;;;;;9.52;6.45;;;9.70;99.90;;;;;;5057403;28;20219;-88
2022/11/06 09:37:39;;;;;;;10.00;6.60;;;9.30;99.90;;;;;;5058178;28;20177;-88
2022/11/06 09:40:05;;;;;;;10.00;6.40;;;;;;;;;;5059105;28;20215;-88
2022/11/06 09:42:52;;;;;;;6.32;4.60;;;9.10;99.90;;;;;;5055405;28;20551;-89
2022/11/06 09:45:21;;;;;;;14.35;7.30;;;8.90;99.90;;;;;;5038750;28;20569;-88
2022/11/06 09:48:09;;;;;;;9.50;6.25;;;8.80;99.90;;;;;;5055434;28;20814;-88
2022/11/06 09:50:40;;;;;;;10.50;7.30;;;8.90;99.90;;;;;;5054488;28;20639;-88
2022/11/06 09:53:15;;;;;;;8.50;6.05;;;8.90;99.90;;;;;;5053316;28;20177;-88
2022/11/06 09:55:43;;;;;;;9.27;5.82;;;8.90;99.90;;;;;;5052620;28;20212;-87
2022/11/06 09:58:32;;;;;;;9.48;5.45;;;9.10;99.90;;;;;;5057350;28;20175;-88
2022/11/06 10:01:02;;;;;;;7.20;4.80;;;9.60;99.90;;;;;;5055956;28;20511;-87
2022/11/06 10:03:53;;;;;;;7.78;5.90;;;9.70;99.90;;;;;;5056468;28;20168;-88
2022/11/06 10:06:21;;;;;;;10.20;5.90;;;9.80;99.90;;;;;;5055010;28;20173;-87
2022/11/06 10:08:50;;;;;;;7.85;4.55;;;9.70;99.90;;;;;;5036753;28;20240;-87
2022/11/06 10:11:40;;;;;;;7.88;4.75;;;10.30;99.90;;;;;;5037789;28;20178;-87
2022/11/06 10:14:15;;;;;;;6.10;4.03;;;9.80;99.90;;;;;;5052174;28;20220;-86
2022/11/06 10:16:57;;;;;;;7.10;4.82;;;9.80;99.90;;;;;;5045018;28;20215;-86
2022/11/06 10:19:47;;;;;;;8.70;4.93;;;10.00;99.90;;;;;;5054096;28;20205;-86
2022/11/06 10:22:17;;;;;;;6.20;3.72;;;10.10;99.90;;;;;;5053580;28;20184;-88
2022/11/06 10:25:02;;;;;;;7.88;4.00;;;10.10;99.90;;;;;;5048097;28;20236;-87
2022/11/06 10:27:41;;;;;;;4.00;2.88;;;10.10;99.90;;;;;;5052564;28;20724;-87
2022/11/06 10:30:12;;;;;;;6.43;4.45;;;9.90;99.90;;;;;;5054058;28;20168;-88
2022/11/06 10:32:51;;;;;;;8.05;4.88;;;9.60;99.90;;;;;;5055335;28;20615;-86
2022/11/06 10:35:44;;;;;;;12.52;5.10;;;10.30;99.90;;;;;;5054864;28;20831;-86
2022/11/06 10:38:24;;;;;;;8.70;4.93;;;10.30;99.90;;;;;;5046538;28;20209;-87
2022/11/06 10:40:52;;;;;;;17.50;7.20;;;10.00;99.90;;;;;;5049937;28;20187;-87
2022/11/06 10:43:28;;;;;;;9.00;5.88;;;10.00;99.90;;;;;;5055031;28;20185;-87
2022/11/06 10:46:05;;;;;;;8.35;6.00;;;10.00;99.90;;;;;;5043826;28;20181;-87
2022/11/06 10:48:37;;;;;;;12.20;7.25;;;10.00;99.90;;;;;;5047707;28;20173;-87
2022/11/06 10:51:15;;;;;;;13.30;8.15;;;10.00;99.90;;;;;;5052222;28;20232;-87
2022/11/06 10:54:16;;;;;;;9.75;6.70;;;10.20;99.90;;;;;;5062564;28;20673;-87
2022/11/06 10:57:24;;;;;;;9.75;5.82;;;10.20;99.90;;;;;;5048134;28;20185;-86
2022/11/06 10:59:50;;;;;;;6.55;4.72;;;10.20;99.90;;;;;;5044251;28;20195;-87
2022/11/06 11:02:30;;;;;;;10.37;5.87;;;10.20;99.90;;;;;;5048395;28;20188;-87
2022/11/06 11:04:55;;;;;;;13.13;6.32;;;10.10;99.90;;;;;;5037780;28;20205;-87
2022/11/06 11:07:22;;;;;;;10.87;6.27;;;10.10;99.90;;;;;;5037498;28;20253;-87
2022/11/06 11:09:49;;;;;;;11.15;7.40;;;10.10;99.90;;;;;;5047057;28;20252;-87
2022/11/06 11:12:33;;;;;;;10.07;7.18;;;10.10;99.90;;;;;;5045073;28;20186;-87
2022/11/06 11:15:18;;;;;;;11.50;7.70;;;10.40;99.90;;;;;;5050275;28;20216;-87
2022/11/06 11:18:29;;;;;;;9.75;7.10;;;10.60;99.90;;;;;;5041895;28;20189;-88
2022/11/06 11:21:05;;;;;;;10.75;5.75;;;10.90;99.90;;;;;;5047316;28;20177;-87
2022/11/06 11:23:31;;;;;;;10.25;6.55;;;10.80;99.90;;;;;;5047829;28;20958;-86
2022/11/06 11:26:13;;;;;;;9.70;6.87;;;10.90;99.90;;;;;;5057162;28;20220;-87
2022/11/06 11:28:39;;;;;;;10.77;6.18;;;10.90;99.90;;;;;;5052916;28;20554;-88
2022/11/06 11:31:15;;;;;;;10.75;6.65;;;11.10;99.90;;;;;;5049538;28;20170;-87
2022/11/06 11:33:50;;;;;;;13.93;6.53;;;11.10;99.90;;;;;;5051480;28;20177;-88
2022/11/06 11:36:16;;;;;;;9.90;6.03;;;11.10;99.90;;;;;;5050005;28;20181;-86
2022/11/06 11:38:44;;;;;;;7.80;4.40;;;11.10;99.90;;;;;;5052533;28;20189;-87
2022/11/06 11:41:18;;;;;;;8.68;5.22;;;11.20;99.90;;;;;;5057232;28;20873;-88
2022/11/06 11:43:56;;;;;;;6.63;3.92;;;11.20;99.90;;;;;;5053319;28;20510;-87
2022/11/06 11:46:22;;;;;;;5.50;4.40;;;11.10;99.90;;;;;;5052857;28;20242;-87
2022/11/06 11:48:54;;;;;;;9.83;5.40;;;11.20;99.90;;;;;;5056987;28;20189;-88
2022/11/06 11:51:43;;;;;;;7.38;3.97;;;11.30;99.90;;;;;;5055072;28;20172;-87
2022/11/06 11:54:12;;;;;;;4.78;3.28;;;11.30;99.90;;;;;;5055081;28;20223;-88
2022/11/06 11:56:54;;;;;;;6.10;4.10;;;11.30;99.90;;;;;;5057093;28;20184;-87
2022/11/06 11:59:26;;;;;;;4.35;3.72;;;11.30;99.90;;;;;;5053621;28;20190;-88
2022/11/06 12:01:53;;;;;;;8.00;3.35;;;11.20;99.90;;;;;;5044497;28;20146;-87
2022/11/06 12:04:19;;;;;;;7.90;4.35;;;;;;;;;;5041603;28;20206;-87
2022/11/06 12:07:04;;;;;;;4.47;2.93;;;11.30;99.90;;;;;;5049779;28;20185;-87
2022/11/06 12:09:33;;;;;;;6.60;3.78;;;11.40;99.90;;;;;;5056811;28;20495;-88
2022/11/06 12:12:00;;;;;;;6.25;4.07;;;11.40;99.90;;;;;;5056413;28;20177;-88
2022/11/06 12:14:32;;;;;;;8.90;3.80;;;11.30;99.90;;;;;;5058444;28;20896;-87
2022/11/06 12:17:08;;;;;;;7.68;3.55;;;11.30;99.90;;;;;;5058504;28;20185;-88
2022/11/06 12:19:36;;;;;;;6.55;3.70;;;11.20;99.90;;;;;;5059304;28;20169;-87
2022/11/06 12:22:14;;;;;;;6.45;4.22;;;11.20;99.90;;;;;;5051131;28;20181;-86
2022/11/06 12:24:48;;;;;;;7.60;4.72;;;11.20;99.90;;;;;;5057660;28;20213;-87
2022/11/06 12:27:21;;;;;;;6.80;4.07;;;11.20;99.90;;;;;;5047816;28;20191;-87
2022/11/06 12:29:56;;;;;;;6.75;3.65;;;11.10;99.90;;;;;;5057315;28;20176;-86
2022/11/06 12:32:22;;;;;;;6.70;4.65;;;11.10;99.90;;;;;;5047908;28;20217;-87
2022/11/06 12:35:25;;;;;;;7.00;4.70;;;11.20;99.90;;;;;;5056895;28;20291;-87
2022/11/06 12:38:04;;;;;;;6.13;3.80;;;11.20;99.90;;;;;;5049487;28;20416;-86
2022/11/06 12:40:37;;;;;;;7.30;4.47;;;11.10;99.90;;;;;;5044343;28;20260;-88
2022/11/06 12:43:27;;;;;;;9.80;4.78;;;11.00;99.90;;;;;;5057075;28;20218;-88
2022/11/06 12:45:55;;;;;;;5.43;3.78;;;11.00;99.90;;;;;;5051619;28;20201;-88
2022/11/06 12:48:30;;;;;;;6.32;3.55;;;11.00;99.90;;;;;;5047975;28;20185;-88
2022/11/06 12:51:18;;;;;;;7.28;4.72;;;11.00;99.90;;;;;;5053125;28;20185;-88
2022/11/06 12:53:44;;;;;;;10.18;5.55;;;;;;;;;;5042310;28;20189;-88
2022/11/06 12:56:10;;;;;;;9.52;5.03;;;;;;;;;;5059930;28;20276;-88
2022/11/06 12:58:36;;;;;;;9.67;4.83;;;;;;;;;;5052815;28;20682;-88
2022/11/06 13:01:14;;;;;;;14.47;7.33;;;11.10;99.90;;;;;;5055236;28;20439;-88
2022/11/06 13:03:54;;;;;;;19.08;15.90;;;11.10;99.90;;;;;;5052697;28;20431;-87
2022/11/06 13:06:34;;;;;;;10.73;7.57;;;11.20;99.90;;;;;;5055860;28;20180;-88
2022/11/06 13:09:04;;;;;;;6.80;4.97;;;11.20;99.90;;;;;;5051517;28;20204;-87
2022/11/06 13:11:42;;;;;;;8.00;4.85;;;11.30;99.90;;;;;;5056174;28;20767;-89
2022/11/06 13:14:17;;;;;;;10.07;4.90;;;12.60;99.90;;;;;;5050183;28;20202;-87
2022/11/06 13:17:06;;;;;;;7.57;5.15;;;11.40;99.90;;;;;;5053896;28;20180;-87
2022/11/06 13:19:56;;;;;;;8.60;4.40;;;11.40;99.90;;;;;;5056887;28;20181;-87
2022/11/06 13:22:34;;;;;;;8.25;5.25;;;11.40;99.90;;;;;;5064303;28;20178;-87
2022/11/06 13:25:33;;;;;;;7.38;4.60;;;11.30;99.90;;;;;;5041045;28;20377;-88
2022/11/06 13:28:14;;;;;;;10.85;5.53;;;11.60;99.90;;;;;;5046215;28;20177;-87
2022/11/06 13:30:41;;;;;;;10.38;5.30;;;11.60;99.90;;;;;;5050084;28;21029;-87
2022/11/06 13:33:16;;;;;;;9.18;5.32;;;11.80;99.90;;;;;;5053600;28;20189;-87
2022/11/06 13:35:44;;;;;;;6.38;4.55;;;11.80;99.90;;;;;;5049082;28;20204;-87